Time;durP1;ratioP1;P1;durP2;ratioP2;P2;SDS_P1;SDS_P2;PMS_P1;PMS_P2;Temp;Humidity;BMP_temperature;BMP_pressure;BME280_temperature;BME280_humidity;BME280_pressure;Samples;Min_cycle;Max_cycle;Signal;HPM_P1;HPM_P2
2022/07/13 00:02:16;;;;;;;4.60;1.55;;;27.10;44.00;;;;;;5010753;28;20019;-70
2022/07/13 00:04:42;;;;;;;7.75;1.48;;;27.00;44.10;;;;;;5019369;28;20445;-70
2022/07/13 00:07:07;;;;;;;4.43;1.20;;;27.00;44.20;;;;;;5025737;28;20029;-70
2022/07/13 00:09:33;;;;;;;10.15;1.40;;;27.00;44.20;;;;;;5022049;28;20040;-70
2022/07/13 00:11:59;;;;;;;3.65;1.30;;;26.90;44.40;;;;;;5022632;28;20120;-70
2022/07/13 00:14:24;;;;;;;5.75;1.30;;;26.90;44.60;;;;;;5021499;28;20112;-70
2022/07/13 00:16:50;;;;;;;8.48;1.50;;;26.80;44.80;;;;;;5026554;28;20116;-70
2022/07/13 00:19:15;;;;;;;8.20;1.27;;;26.70;44.90;;;;;;5021787;28;20079;-70
2022/07/13 00:21:41;;;;;;;5.72;1.35;;;26.70;45.10;;;;;;5018929;28;20084;-70
2022/07/13 00:24:07;;;;;;;3.30;1.00;;;26.60;45.20;;;;;;5019511;28;20033;-70
2022/07/13 00:26:32;;;;;;;6.25;1.35;;;26.50;45.30;;;;;;5024820;28;20029;-70
2022/07/13 00:28:58;;;;;;;10.68;1.38;;;26.50;45.50;;;;;;5028707;28;20588;-70
2022/07/13 00:31:24;;;;;;;3.85;1.25;;;26.40;45.60;;;;;;5012530;28;20080;-70
2022/07/13 00:33:49;;;;;;;10.02;1.60;;;26.40;45.70;;;;;;5018565;28;20029;-70
2022/07/13 00:36:15;;;;;;;6.72;1.52;;;26.30;45.90;;;;;;5018582;28;20030;-70
2022/07/13 00:38:41;;;;;;;6.05;1.40;;;26.20;46.20;;;;;;5022081;28;20018;-70
2022/07/13 00:41:07;;;;;;;4.97;1.33;;;26.20;46.50;;;;;;5022946;28;20037;-70
2022/07/13 00:43:32;;;;;;;3.25;1.30;;;26.10;46.80;;;;;;5010544;28;20033;-70
2022/07/13 00:45:58;;;;;;;9.20;1.65;;;26.10;47.10;;;;;;5012883;28;20061;-70
2022/07/13 00:48:25;;;;;;;6.63;1.58;;;26.00;47.10;;;;;;5021743;28;20456;-70
2022/07/13 00:50:51;;;;;;;5.32;1.30;;;25.80;50.20;;;;;;5012986;28;20045;-70
2022/07/13 00:53:18;;;;;;;4.55;1.35;;;25.90;47.50;;;;;;5024837;28;20499;-70
2022/07/13 00:55:46;;;;;;;5.35;1.25;;;25.90;47.70;;;;;;5025920;28;20034;-70
2022/07/13 00:58:12;;;;;;;5.82;1.60;;;25.80;47.80;;;;;;5025769;28;20088;-70
2022/07/13 01:00:38;;;;;;;5.68;1.35;;;25.80;47.90;;;;;;5031639;28;20503;-70
2022/07/13 01:03:04;;;;;;;3.88;1.50;;;25.70;48.00;;;;;;5026485;28;20078;-70
2022/07/13 01:05:30;;;;;;;5.93;1.40;;;26.30;52.00;;;;;;5025662;28;20413;-70
2022/07/13 01:07:56;;;;;;;5.97;1.42;;;25.60;48.30;;;;;;5028168;28;20059;-70
2022/07/13 01:10:21;;;;;;;5.03;1.42;;;25.60;56.70;;;;;;5026463;28;20054;-69
2022/07/13 01:12:47;;;;;;;6.85;1.40;;;25.50;48.80;;;;;;5025213;28;20029;-70
2022/07/13 01:15:13;;;;;;;3.40;1.48;;;25.40;48.80;;;;;;5024570;28;20022;-70
2022/07/13 01:17:39;;;;;;;6.13;1.42;;;25.40;48.80;;;;;;5028701;28;20496;-70
2022/07/13 01:20:06;;;;;;;5.50;1.60;;;25.30;48.80;;;;;;5028557;28;20049;-70
2022/07/13 01:22:36;;;;;;;3.47;1.40;;;25.20;49.00;;;;;;5024526;28;20045;-70
2022/07/13 01:25:04;;;;;;;6.20;1.30;;;25.20;49.40;;;;;;5023999;28;20025;-70
2022/07/13 01:27:34;;;;;;;7.35;1.65;;;25.20;49.80;;;;;;5024137;28;20030;-70
2022/07/13 01:30:00;;;;;;;7.00;1.42;;;25.10;58.90;;;;;;5028718;28;20088;-70
2022/07/13 01:32:26;;;;;;;4.53;1.50;;;24.50;57.10;;;;;;5021207;28;20037;-70
2022/07/13 01:34:51;;;;;;;6.90;1.42;;;25.00;51.30;;;;;;5025762;28;20029;-70
2022/07/13 01:37:18;;;;;;;5.80;1.50;;;25.00;51.90;;;;;;5022134;28;20052;-70
2022/07/13 01:39:44;;;;;;;8.45;1.60;;;25.00;52.20;;;;;;5021124;28;20108;-70
2022/07/13 01:42:10;;;;;;;4.78;1.35;;;25.00;58.30;;;;;;5025896;28;20112;-70
2022/07/13 01:44:36;;;;;;;6.40;1.60;;;24.80;52.30;;;;;;5015280;28;20029;-70
2022/07/13 01:47:08;;;;;;;5.13;1.40;;;24.80;51.80;;;;;;5028337;28;20040;-70
2022/07/13 01:49:34;;;;;;;5.78;1.30;;;24.70;51.40;;;;;;5023110;28;20077;-70
2022/07/13 01:52:00;;;;;;;4.63;1.38;;;24.70;51.40;;;;;;5027732;28;20124;-70
2022/07/13 01:54:26;;;;;;;5.15;1.50;;;24.60;51.20;;;;;;5023549;28;20057;-69
2022/07/13 01:56:52;;;;;;;4.22;1.50;;;24.50;51.40;;;;;;5017467;28;20496;-70
2022/07/13 01:59:18;;;;;;;2.72;1.40;;;24.00;61.00;;;;;;5031539;28;20075;-70
2022/07/13 02:01:44;;;;;;;4.15;1.40;;;25.20;60.70;;;;;;5030722;28;20044;-70
2022/07/13 02:04:10;;;;;;;5.65;1.45;;;24.30;51.60;;;;;;5018012;28;20026;-70
2022/07/13 02:06:36;;;;;;;5.50;1.33;;;25.70;59.50;;;;;;5025167;28;20032;-70
2022/07/13 02:09:02;;;;;;;4.35;1.50;;;24.20;51.70;;;;;;5019397;28;20014;-70
2022/07/13 02:11:28;;;;;;;3.08;1.48;;;24.20;52.10;;;;;;5025437;28;20045;-69
2022/07/13 02:13:54;;;;;;;4.80;1.65;;;24.10;52.30;;;;;;5030567;28;20080;-70
2022/07/13 02:16:19;;;;;;;5.85;1.50;;;24.10;52.60;;;;;;5019767;28;20111;-70
2022/07/13 02:18:45;;;;;;;4.05;1.50;;;24.00;52.70;;;;;;5023293;28;20030;-70
2022/07/13 02:21:12;;;;;;;6.00;1.48;;;23.70;59.50;;;;;;5030668;28;20471;-70
2022/07/13 02:23:38;;;;;;;3.85;1.50;;;23.90;53.50;;;;;;5024071;28;20455;-69
2022/07/13 02:26:04;;;;;;;5.63;1.40;;;23.90;53.40;;;;;;5026504;28;20132;-70
2022/07/13 02:28:30;;;;;;;5.25;1.33;;;23.80;53.30;;;;;;5017508;28;20500;-70
2022/07/13 02:30:56;;;;;;;6.68;1.38;;;23.90;53.30;;;;;;5017159;28;20512;-70
2022/07/13 02:33:21;;;;;;;4.38;1.30;;;23.80;52.90;;;;;;5018876;28;20088;-70
2022/07/13 02:35:47;;;;;;;3.25;1.42;;;23.70;52.70;;;;;;5023231;28;20099;-70
2022/07/13 02:38:13;;;;;;;7.03;1.48;;;23.70;52.90;;;;;;5023252;28;20076;-70
2022/07/13 02:40:38;;;;;;;5.90;1.48;;;23.70;53.20;;;;;;5020592;28;20037;-70
2022/07/13 02:43:04;;;;;;;6.50;1.60;;;23.60;53.80;;;;;;5025565;28;20025;-69
2022/07/13 02:45:30;;;;;;;5.78;1.60;;;23.60;54.40;;;;;;5020654;28;20034;-69
2022/07/13 02:47:55;;;;;;;4.93;1.60;;;23.60;55.60;;;;;;5022121;28;20451;-70
2022/07/13 02:50:22;;;;;;;4.20;1.48;;;23.10;58.90;;;;;;5022102;28;20111;-69
2022/07/13 02:52:47;;;;;;;4.18;1.70;;;23.50;55.00;;;;;;5019551;28;20022;-70
2022/07/13 02:55:13;;;;;;;4.28;1.50;;;23.50;55.00;;;;;;5019401;28;20033;-70
2022/07/13 02:57:39;;;;;;;3.97;1.48;;;23.50;54.80;;;;;;5021988;28;20178;-70
2022/07/13 03:00:07;;;;;;;3.65;1.60;;;23.40;54.70;;;;;;5022686;28;20444;-70
2022/07/13 03:02:32;;;;;;;5.70;1.65;;;24.60;58.30;;;;;;5026355;28;20021;-70
2022/07/13 03:04:58;;;;;;;4.55;1.60;;;23.40;54.90;;;;;;5025434;28;20124;-69
2022/07/13 03:07:24;;;;;;;5.28;1.65;;;23.30;55.20;;;;;;5026524;28;20087;-69
2022/07/13 03:09:49;;;;;;;3.65;1.60;;;23.40;57.80;;;;;;5017359;28;20108;-70
2022/07/13 03:12:15;;;;;;;3.55;1.50;;;23.20;55.40;;;;;;5014402;28;20025;-70
2022/07/13 03:14:41;;;;;;;6.22;1.60;;;23.20;55.20;;;;;;5022443;28;20026;-69
2022/07/13 03:17:06;;;;;;;9.35;1.42;;;23.20;55.00;;;;;;5017566;28;20037;-70
2022/07/13 03:19:33;;;;;;;6.43;1.73;;;21.10;56.70;;;;;;5013948;28;20033;-69
2022/07/13 03:22:01;;;;;;;6.25;1.60;;;23.10;55.70;;;;;;5018150;28;20025;-69
2022/07/13 03:24:29;;;;;;;4.20;1.70;;;23.10;56.00;;;;;;5021836;28;20049;-70
2022/07/13 03:26:55;;;;;;;3.92;1.67;;;23.00;56.20;;;;;;5030170;28;20496;-70
2022/07/13 03:29:20;;;;;;;6.82;1.70;;;23.00;56.60;;;;;;5022807;28;20040;-69
2022/07/13 03:31:46;;;;;;;4.43;1.70;;;23.00;56.20;;;;;;5026664;28;20516;-69
2022/07/13 03:34:12;;;;;;;4.72;1.40;;;22.90;56.30;;;;;;5022207;28;20383;-69
2022/07/13 03:36:37;;;;;;;6.30;1.70;;;22.80;56.40;;;;;;5019165;28;20105;-69
2022/07/13 03:39:03;;;;;;;7.45;1.63;;;22.80;56.60;;;;;;5023589;28;20021;-69
2022/07/13 03:41:29;;;;;;;5.57;1.55;;;22.80;56.50;;;;;;5021812;28;20501;-70
2022/07/13 03:43:54;;;;;;;3.97;1.75;;;22.80;56.40;;;;;;5027692;28;20374;-69
2022/07/13 03:46:20;;;;;;;5.72;1.70;;;22.70;56.10;;;;;;5025880;28;20095;-69
2022/07/13 03:48:45;;;;;;;4.82;1.83;;;22.70;56.10;;;;;;5025642;28;20030;-69
2022/07/13 03:51:11;;;;;;;3.42;1.80;;;22.60;56.30;;;;;;5022774;28;20131;-69
2022/07/13 03:53:37;;;;;;;6.63;2.10;;;22.60;56.90;;;;;;5024672;28;20409;-69
2022/07/13 03:56:03;;;;;;;6.68;1.70;;;22.50;57.30;;;;;;5024925;28;20099;-69
2022/07/13 03:58:28;;;;;;;6.80;1.77;;;22.50;57.60;;;;;;5024274;28;20037;-69
2022/07/13 04:00:55;;;;;;;5.43;1.88;;;22.50;57.80;;;;;;5025527;28;20500;-70
2022/07/13 04:03:21;;;;;;;5.72;1.65;;;22.50;57.90;;;;;;5025034;28;20580;-71
2022/07/13 04:05:46;;;;;;;5.25;1.67;;;22.40;58.00;;;;;;5024876;28;20029;-69
2022/07/13 04:08:12;;;;;;;6.30;1.90;;;22.40;58.20;;;;;;5022571;28;20788;-69
2022/07/13 04:10:38;;;;;;;6.28;1.77;;;22.40;58.50;;;;;;5023312;28;20751;-69
2022/07/13 04:13:03;;;;;;;5.22;1.80;;;22.40;58.70;;;;;;5021215;28;20374;-69
2022/07/13 04:15:29;;;;;;;4.95;1.80;;;22.40;58.70;;;;;;5021447;28;20518;-70
2022/07/13 04:17:55;;;;;;;7.07;2.15;;;22.30;58.50;;;;;;5023687;28;20041;-69
2022/07/13 04:20:20;;;;;;;5.78;1.90;;;22.30;58.50;;;;;;5022574;28;20034;-70
2022/07/13 04:22:46;;;;;;;6.15;2.00;;;22.30;58.60;;;;;;5023386;28;20504;-70
2022/07/13 04:25:12;;;;;;;5.05;2.00;;;22.30;58.20;;;;;;5023591;28;20079;-70
2022/07/13 04:27:37;;;;;;;5.07;2.08;;;22.20;57.70;;;;;;5018305;28;20030;-70
2022/07/13 04:30:03;;;;;;;5.38;2.10;;;22.20;57.90;;;;;;5024392;28;20099;-72
2022/07/13 04:32:29;;;;;;;3.65;1.83;;;22.10;58.40;;;;;;5025196;28;20030;-70
2022/07/13 04:34:55;;;;;;;5.13;1.80;;;22.10;58.30;;;;;;5037677;28;20491;-70
2022/07/13 04:37:20;;;;;;;3.72;1.90;;;22.00;58.00;;;;;;5023742;28;20456;-70
2022/07/13 04:39:46;;;;;;;7.63;2.00;;;22.00;57.90;;;;;;5026053;28;20083;-69
2022/07/13 04:42:12;;;;;;;6.75;2.00;;;21.90;57.90;;;;;;5022351;28;20034;-69
2022/07/13 04:44:37;;;;;;;7.72;2.10;;;21.90;58.20;;;;;;5020458;28;20061;-68
2022/07/13 04:47:03;;;;;;;7.22;2.28;;;21.80;58.30;;;;;;5012267;28;20050;-69
2022/07/13 04:49:29;;;;;;;5.63;2.00;;;21.80;58.40;;;;;;5022981;28;20033;-69
2022/07/13 04:51:54;;;;;;;6.00;2.15;;;21.80;58.50;;;;;;5026623;28;20512;-69
2022/07/13 04:54:21;;;;;;;8.32;2.30;;;21.80;58.50;;;;;;5027451;28;20080;-69
2022/07/13 04:56:48;;;;;;;8.55;2.10;;;21.80;59.30;;;;;;5015458;28;20084;-68
2022/07/13 04:59:14;;;;;;;7.65;2.05;;;21.80;58.20;;;;;;5034767;28;20108;-68
2022/07/13 05:01:41;;;;;;;7.07;2.30;;;21.80;58.40;;;;;;5028639;28;20052;-68
2022/07/13 05:04:07;;;;;;;6.03;2.20;;;21.80;58.70;;;;;;5029736;28;20029;-68
2022/07/13 05:06:33;;;;;;;5.10;2.30;;;21.90;59.10;;;;;;5023792;28;20109;-68
2022/07/13 05:08:59;;;;;;;5.60;2.20;;;21.90;59.20;;;;;;5012909;28;20025;-68
2022/07/13 05:11:26;;;;;;;6.15;2.15;;;21.90;59.40;;;;;;5018454;28;20123;-74
2022/07/13 05:13:52;;;;;;;6.47;2.10;;;22.10;59.60;;;;;;5015641;28;20057;-75
2022/07/13 05:16:18;;;;;;;3.50;2.10;;;21.90;59.60;;;;;;5022552;28;20037;-74
2022/07/13 05:18:44;;;;;;;6.32;2.33;;;22.00;59.80;;;;;;5029910;28;20021;-76
2022/07/13 05:21:10;;;;;;;6.10;2.28;;;22.00;59.80;;;;;;5030284;28;20075;-74
2022/07/13 05:23:37;;;;;;;8.27;2.30;;;22.00;59.70;;;;;;5021789;28;20456;-74
2022/07/13 05:26:04;;;;;;;6.22;1.90;;;22.00;59.70;;;;;;5027127;28;20404;-74
2022/07/13 05:28:32;;;;;;;8.05;2.30;;;22.10;59.80;;;;;;5024701;28;20029;-74
2022/07/13 05:30:58;;;;;;;5.07;2.33;;;22.10;60.00;;;;;;5025635;28;20038;-74
2022/07/13 05:33:24;;;;;;;6.20;2.00;;;22.10;60.40;;;;;;5022917;28;20447;-72
2022/07/13 05:35:49;;;;;;;6.50;2.45;;;22.20;60.70;;;;;;5022986;28;20734;-74
2022/07/13 05:38:15;;;;;;;9.35;2.30;;;22.20;60.80;;;;;;5024005;28;20048;-74
2022/07/13 05:40:41;;;;;;;8.52;2.67;;;22.30;60.90;;;;;;5026553;28;20053;-74
2022/07/13 05:43:07;;;;;;;5.78;2.33;;;22.40;61.00;;;;;;5023778;28;20032;-74
2022/07/13 05:45:32;;;;;;;7.45;2.38;;;22.50;61.00;;;;;;5021011;28;20085;-75
2022/07/13 05:47:59;;;;;;;8.13;2.60;;;22.60;61.10;;;;;;5012943;28;20028;-75
2022/07/13 05:50:24;;;;;;;6.07;2.53;;;22.60;61.10;;;;;;5024113;28;20057;-74
2022/07/13 05:52:50;;;;;;;6.10;2.40;;;22.80;61.60;;;;;;5021197;28;20022;-77
2022/07/13 05:55:17;;;;;;;6.85;2.75;;;22.90;61.80;;;;;;5018263;28;20412;-73
2022/07/13 05:57:44;;;;;;;4.60;2.60;;;23.00;61.70;;;;;;5023072;28;20037;-74
2022/07/13 06:00:11;;;;;;;10.38;2.95;;;23.20;61.90;;;;;;5033589;28;20060;-76
2022/07/13 06:02:41;;;;;;;11.05;2.60;;;23.30;62.00;;;;;;5027784;28;20065;-77
2022/07/13 06:05:08;;;;;;;10.35;2.80;;;23.50;61.80;;;;;;5034954;28;20024;-76
2022/07/13 06:07:33;;;;;;;5.57;2.50;;;23.60;61.70;;;;;;5025436;28;20136;-75
2022/07/13 06:10:01;;;;;;;5.85;2.60;;;23.70;61.70;;;;;;5018559;28;20512;-76
2022/07/13 06:12:27;;;;;;;5.65;2.78;;;23.90;61.40;;;;;;5014749;28;20049;-76
2022/07/13 06:14:53;;;;;;;5.18;2.40;;;24.10;61.00;;;;;;5012551;28;20028;-74
2022/07/13 06:17:20;;;;;;;5.65;2.20;;;24.30;60.70;;;;;;5016842;28;20037;-75
2022/07/13 06:19:45;;;;;;;10.75;2.85;;;24.50;60.30;;;;;;5024428;28;20048;-75
2022/07/13 06:22:11;;;;;;;9.98;2.70;;;24.70;60.00;;;;;;5021744;28;20472;-74
2022/07/13 06:24:41;;;;;;;8.38;2.90;;;24.80;59.60;;;;;;5025203;28;20132;-75
2022/07/13 06:27:07;;;;;;;7.90;2.72;;;25.00;59.20;;;;;;5023855;28;20497;-74
2022/07/13 06:29:33;;;;;;;4.80;2.30;;;25.10;58.70;;;;;;5024720;28;20049;-74
2022/07/13 06:31:58;;;;;;;8.05;2.50;;;25.40;58.10;;;;;;5023797;28;20045;-74
2022/07/13 06:34:24;;;;;;;7.05;2.20;;;25.60;57.60;;;;;;5022506;28;20098;-73
2022/07/13 06:36:50;;;;;;;4.25;2.25;;;25.80;57.20;;;;;;5018790;28;20052;-72
2022/07/13 06:39:15;;;;;;;6.53;2.30;;;25.90;56.90;;;;;;5021734;28;20088;-74
2022/07/13 06:41:41;;;;;;;7.97;2.42;;;26.10;56.50;;;;;;5027121;28;20037;-73
2022/07/13 06:44:07;;;;;;;5.90;2.90;;;26.40;56.00;;;;;;5026949;28;20032;-73
2022/07/13 06:46:32;;;;;;;5.63;2.10;;;26.70;55.20;;;;;;5026038;28;20108;-73
2022/07/13 06:48:58;;;;;;;8.75;2.17;;;27.00;54.30;;;;;;5027120;28;20067;-73
2022/07/13 06:51:24;;;;;;;8.48;2.22;;;27.40;53.40;;;;;;5020698;28;20519;-73
2022/07/13 06:53:50;;;;;;;5.45;2.20;;;27.80;52.00;;;;;;5023128;28;20057;-75
2022/07/13 06:56:20;;;;;;;7.00;2.30;;;28.40;50.20;;;;;;5023787;28;20075;-71
2022/07/13 06:58:46;;;;;;;;;;;29.40;47.90;;;;;;5019015;28;20041;-73
2022/07/13 07:01:12;;;;;;;7.32;2.40;;;30.50;44.00;;;;;;5024061;28;19909;-75
2022/07/13 07:03:38;;;;;;;6.03;2.42;;;31.70;40.60;;;;;;5024412;28;20031;-74
2022/07/13 07:06:04;;;;;;;7.10;2.28;;;32.70;38.10;;;;;;5023506;28;20080;-74
2022/07/13 07:08:30;;;;;;;7.10;2.10;;;33.50;36.20;;;;;;5022486;28;20504;-74
2022/07/13 07:10:56;;;;;;;6.63;2.08;;;34.10;34.50;;;;;;5026180;28;20112;-74
2022/07/13 07:13:22;;;;;;;6.70;1.90;;;34.60;33.40;;;;;;5023986;28;20037;-74
2022/07/13 07:15:48;;;;;;;7.70;1.90;;;35.00;32.60;;;;;;5022828;28;20555;-74
2022/07/13 07:18:14;;;;;;;8.35;1.83;;;35.50;31.90;;;;;;5023628;28;20037;-74
2022/07/13 07:20:39;;;;;;;5.15;2.00;;;35.80;30.90;;;;;;5025364;28;20044;-77
2022/07/13 07:23:05;;;;;;;6.18;1.80;;;36.20;30.50;;;;;;5024171;28;20036;-76
2022/07/13 07:25:31;;;;;;;5.07;1.80;;;36.60;29.80;;;;;;5021936;28;20392;-73
2022/07/13 07:27:57;;;;;;;6.47;1.73;;;37.00;29.30;;;;;;5020467;28;20100;-77
2022/07/13 07:30:22;;;;;;;6.70;1.80;;;37.30;28.80;;;;;;5022130;28;20029;-74
2022/07/13 07:32:48;;;;;;;7.45;1.92;;;37.70;28.20;;;;;;5021962;28;20026;-73
2022/07/13 07:35:14;;;;;;;11.35;1.83;;;38.00;27.70;;;;;;5024720;28;20029;-72
2022/07/13 07:37:39;;;;;;;9.30;1.90;;;38.30;27.30;;;;;;5013949;28;20034;-74
2022/07/13 07:40:07;;;;;;;6.53;1.80;;;38.50;26.90;;;;;;5013834;28;20030;-72
2022/07/13 07:42:32;;;;;;;7.45;1.85;;;38.80;26.60;;;;;;5011613;28;20084;-74
2022/07/13 07:44:58;;;;;;;8.80;1.95;;;39.10;26.10;;;;;;5023205;28;20025;-78
2022/07/13 07:47:25;;;;;;;9.48;2.08;;;39.20;25.70;;;;;;5009042;28;20558;-77
2022/07/13 07:49:52;;;;;;;4.65;1.70;;;39.00;25.70;;;;;;5013262;28;20042;-76
2022/07/13 07:52:19;;;;;;;9.55;1.60;;;38.50;26.00;;;;;;5011651;28;20030;-73
2022/07/13 07:54:45;;;;;;;5.35;1.70;;;38.10;26.40;;;;;;5012231;28;20029;-75
2022/07/13 07:57:11;;;;;;;7.55;1.83;;;37.60;27.00;;;;;;5012010;28;20382;-76
2022/07/13 07:59:38;;;;;;;7.43;1.77;;;37.10;28.10;;;;;;5023895;28;20033;-77
2022/07/13 08:02:04;;;;;;;6.22;1.75;;;36.50;29.10;;;;;;5012419;28;20041;-77
2022/07/13 08:04:29;;;;;;;8.85;1.77;;;36.00;29.70;;;;;;5020816;28;20033;-75
2022/07/13 08:06:55;;;;;;;9.57;1.65;;;35.70;30.00;;;;;;5018013;28;20393;-74
2022/07/13 08:09:21;;;;;;;6.90;1.75;;;35.40;30.00;;;;;;5019921;28;20056;-74
2022/07/13 08:11:46;;;;;;;7.43;1.80;;;35.40;30.40;;;;;;5027024;28;20060;-73
2022/07/13 08:14:12;;;;;;;9.13;1.80;;;35.30;30.50;;;;;;5030289;28;20071;-74
2022/07/13 08:16:39;;;;;;;8.82;1.70;;;35.20;30.40;;;;;;5017125;28;20492;-71
2022/07/13 08:19:04;;;;;;;5.68;1.50;;;35.10;30.10;;;;;;5019963;28;20100;-72
2022/07/13 08:21:34;;;;;;;7.03;1.60;;;35.10;30.50;;;;;;5016081;28;20504;-73
2022/07/13 08:23:59;;;;;;;5.00;1.75;;;35.00;30.70;;;;;;5015598;28;20464;-73
2022/07/13 08:26:30;;;;;;;6.90;1.70;;;35.00;31.00;;;;;;5013806;28;20157;-72
2022/07/13 08:28:58;;;;;;;9.68;1.80;;;34.90;31.50;;;;;;5026314;28;20431;-73
2022/07/13 08:31:25;;;;;;;5.80;2.10;;;34.80;31.40;;;;;;5016845;28;20065;-72
2022/07/13 08:39:22;;;;;;;9.60;1.98;;;34.80;31.70;;;;;;5015720;28;20048;-73
2022/07/13 08:41:48;;;;;;;6.07;1.48;;;34.90;32.20;;;;;;5015024;28;20083;-73
2022/07/13 08:44:15;;;;;;;3.83;1.55;;;32.40;32.70;;;;;;5027810;28;20067;-72
2022/07/13 08:46:41;;;;;;;6.35;1.80;;;34.90;31.30;;;;;;5014563;28;20076;-73
2022/07/13 08:49:08;;;;;;;6.05;1.75;;;35.10;30.90;;;;;;5020227;28;20057;-71
2022/07/13 08:51:34;;;;;;;9.90;1.80;;;35.10;30.70;;;;;;5022430;28;20048;-73
2022/07/13 08:54:02;;;;;;;5.35;1.70;;;35.30;31.20;;;;;;5018317;28;20025;-71
2022/07/13 08:56:28;;;;;;;4.55;1.40;;;35.50;30.60;;;;;;5030282;28;20028;-71
2022/07/13 08:58:54;;;;;;;4.82;1.55;;;35.80;30.30;;;;;;5025659;28;20036;-70
2022/07/13 09:01:20;;;;;;;4.05;1.48;;;36.10;29.70;;;;;;5018144;28;20061;-72
2022/07/13 09:03:46;;;;;;;5.95;1.70;;;36.30;28.90;;;;;;5017579;28;20030;-71
2022/07/13 09:06:47;;;;;;;7.45;1.50;;;36.60;28.40;;;;;;5025505;28;20021;-72
2022/07/13 09:09:33;;;;;;;6.80;1.40;;;36.90;28.50;;;;;;5015725;28;20028;-72
2022/07/13 09:12:10;;;;;;;6.97;1.33;;;37.20;27.40;;;;;;5014678;28;20053;-71
2022/07/13 09:14:36;;;;;;;4.25;1.38;;;36.50;27.50;;;;;;5010819;28;20050;-72
2022/07/13 09:17:02;;;;;;;8.60;1.40;;;37.80;26.70;;;;;;5021607;28;20064;-73
2022/07/13 09:19:34;;;;;;;10.00;1.40;;;38.70;27.50;;;;;;5022416;28;20440;-72
2022/07/13 09:22:13;;;;;;;4.93;1.25;;;38.50;25.20;;;;;;5018195;28;20083;-72
2022/07/13 09:24:46;;;;;;;5.30;1.27;;;41.50;26.60;;;;;;5014042;28;20068;-73
2022/07/13 09:27:13;;;;;;;5.20;1.40;;;39.60;23.80;;;;;;5014452;28;20394;-72
2022/07/13 09:29:40;;;;;;;10.68;1.38;;;40.40;22.50;;;;;;5027568;28;20137;-74
2022/07/13 09:32:08;;;;;;;4.32;1.15;;;41.10;21.80;;;;;;5014613;28;20364;-74
2022/07/13 09:34:53;;;;;;;4.55;1.20;;;42.00;20.90;;;;;;5014031;28;20412;-73
2022/07/13 09:37:21;;;;;;;9.25;1.30;;;43.00;19.90;;;;;;5014493;28;20120;-75
2022/07/13 09:40:08;;;;;;;8.43;1.30;;;43.80;19.00;;;;;;5017125;28;20034;-72
2022/07/13 09:42:37;;;;;;;4.68;1.17;;;44.40;18.40;;;;;;5020267;28;20033;-71
2022/07/13 09:48:00;;;;;;;4.63;1.00;;;45.50;17.00;;;;;;5014320;28;20045;-71
2022/07/13 09:50:39;;;;;;;5.28;0.90;;;46.10;16.20;;;;;;5009804;28;20587;-71
2022/07/13 09:53:23;;;;;;;3.10;0.73;;;46.70;15.90;;;;;;5026248;28;20057;-73
2022/07/13 09:55:51;;;;;;;6.00;0.82;;;47.20;15.10;;;;;;5028564;28;20029;-73
2022/07/13 09:58:27;;;;;;;2.30;0.80;;;47.70;14.30;;;;;;5018218;28;20036;-73
2022/07/13 10:00:55;;;;;;;4.07;1.08;;;48.00;13.90;;;;;;5023567;28;20493;-71
2022/07/13 10:03:22;;;;;;;3.60;1.00;;;48.40;14.00;;;;;;5018771;28;20041;-72
2022/07/13 10:05:49;;;;;;;4.93;0.90;;;48.80;14.10;;;;;;5027703;28;20104;-75
2022/07/13 10:08:17;;;;;;;3.10;1.02;;;49.20;14.20;;;;;;5009993;28;20048;-72
2022/07/13 10:10:44;;;;;;;5.80;1.00;;;49.50;14.30;;;;;;5014522;28;20124;-73
2022/07/13 10:13:12;;;;;;;4.28;0.85;;;49.90;13.90;;;;;;5024290;28;20031;-74
2022/07/13 10:15:38;;;;;;;4.72;0.90;;;50.30;13.20;;;;;;5019897;28;20489;-74
2022/07/13 10:18:05;;;;;;;3.03;0.82;;;50.60;12.70;;;;;;5014004;28;20025;-75
2022/07/13 10:20:33;;;;;;;4.75;1.00;;;50.90;12.70;;;;;;5013393;28;20038;-74
2022/07/13 10:22:59;;;;;;;1.65;0.77;;;51.20;12.60;;;;;;5025792;28;20505;-76
2022/07/13 10:25:40;;;;;;;4.55;0.90;;;49.40;10.60;;;;;;5023828;28;20037;-78
2022/07/13 10:28:09;;;;;;;7.47;0.82;;;51.60;12.00;;;;;;5024610;28;20030;-73
2022/07/13 10:30:36;;;;;;;5.47;0.85;;;51.80;12.00;;;;;;5025998;28;20045;-74
2022/07/13 10:33:21;;;;;;;5.38;0.80;;;52.10;11.70;;;;;;5024442;28;20059;-73
2022/07/13 10:35:49;;;;;;;5.90;0.90;;;52.30;11.60;;;;;;5017276;28;20113;-74
2022/07/13 10:38:20;;;;;;;4.40;0.88;;;52.50;11.40;;;;;;5026205;28;20042;-74
2022/07/13 10:40:46;;;;;;;6.72;0.80;;;52.80;11.20;;;;;;5016943;28;20523;-76
2022/07/13 10:43:16;;;;;;;2.53;0.85;;;53.00;11.20;;;;;;5024408;28;20435;-74
2022/07/13 10:45:48;;;;;;;5.68;0.88;;;53.20;10.90;;;;;;5025956;28;20117;-74
2022/07/13 10:48:20;;;;;;;4.00;0.90;;;53.30;10.60;;;;;;5025695;28;20116;-74
2022/07/13 10:50:46;;;;;;;5.43;0.90;;;53.40;10.50;;;;;;5025719;28;20513;-79
2022/07/13 10:53:22;;;;;;;6.15;0.90;;;50.90;9.00;;;;;;5013691;28;20052;-73
2022/07/13 10:55:51;;;;;;;3.65;0.85;;;53.50;10.30;;;;;;5028332;28;20041;-74
2022/07/13 10:58:33;;;;;;;7.90;1.05;;;53.70;10.40;;;;;;5026058;28;20027;-74
2022/07/13 11:01:00;;;;;;;5.15;0.80;;;53.90;10.50;;;;;;5024267;28;20041;-76
2022/07/13 11:03:43;;;;;;;7.22;0.80;;;54.00;10.50;;;;;;5023032;28;20025;-74
2022/07/13 11:06:13;;;;;;;5.75;0.80;;;51.40;9.20;;;;;;5015500;28;20027;-76
2022/07/13 11:08:40;;;;;;;9.50;0.85;;;54.70;10.80;;;;;;5014400;28;20545;-80
2022/07/13 11:11:28;;;;;;;7.53;1.00;;;54.30;10.10;;;;;;5024367;28;20037;-76
2022/07/13 11:13:54;;;;;;;5.30;0.90;;;54.40;9.90;;;;;;5026102;28;20025;-75
2022/07/13 11:16:45;;;;;;;10.60;1.00;;;54.50;10.00;;;;;;5021584;28;20027;-77
2022/07/13 11:19:35;;;;;;;6.22;0.82;;;54.70;10.10;;;;;;5024800;28;20025;-76
2022/07/13 11:22:10;;;;;;;5.60;0.70;;;54.90;9.80;;;;;;5018600;28;20049;-74
2022/07/13 11:25:14;;;;;;;3.78;0.70;;;55.00;9.80;;;;;;5021448;28;20104;-73
2022/07/13 11:28:06;;;;;;;2.40;0.60;;;56.20;10.40;;;;;;5015936;28;20037;-75
2022/07/13 11:30:35;;;;;;;10.30;0.80;;;56.40;10.00;;;;;;5021418;28;20037;-74
2022/07/13 11:33:01;;;;;;;11.57;0.82;;;54.90;9.30;;;;;;5022517;28;20034;-78
2022/07/13 11:35:30;;;;;;;4.30;0.70;;;54.90;9.50;;;;;;5018435;28;20037;-75
2022/07/13 11:37:57;;;;;;;5.13;0.90;;;56.70;10.30;;;;;;5022575;28;20099;-75
2022/07/13 11:40:32;;;;;;;4.80;0.60;;;55.00;9.40;;;;;;5013858;28;20055;-75
2022/07/13 11:43:03;;;;;;;5.60;0.90;;;55.10;9.40;;;;;;5018672;28;20479;-81
2022/07/13 11:45:32;;;;;;;3.80;0.70;;;55.20;9.00;;;;;;5031226;28;20029;-74
2022/07/13 11:48:01;;;;;;;3.53;0.77;;;55.30;9.30;;;;;;5022930;28;20037;-74
2022/07/13 11:50:49;;;;;;;7.30;0.75;;;55.40;9.20;;;;;;5031932;28;20240;-74
2022/07/13 11:53:20;;;;;;;3.40;0.77;;;55.60;9.20;;;;;;5022279;28;20053;-74
2022/07/13 11:55:46;;;;;;;9.57;0.90;;;55.70;9.10;;;;;;5026241;28;20626;-74
2022/07/13 11:58:31;;;;;;;4.43;0.80;;;55.80;8.90;;;;;;5022946;28;20033;-72
2022/07/13 12:01:01;;;;;;;3.45;0.60;;;55.90;8.80;;;;;;5017444;28;20026;-75
2022/07/13 12:03:32;;;;;;;4.07;0.70;;;55.80;8.60;;;;;;5020586;28;20485;-74
2022/07/13 12:06:04;;;;;;;5.70;0.60;;;55.80;8.50;;;;;;5021234;28;20053;-76
2022/07/13 12:08:31;;;;;;;4.88;0.70;;;55.70;8.40;;;;;;5007933;28;20600;-75
2022/07/13 12:10:57;;;;;;;6.00;0.75;;;53.30;8.20;;;;;;5023215;28;20116;-75
2022/07/13 12:13:23;;;;;;;4.95;0.70;;;54.30;8.40;;;;;;5011709;28;20087;-74
2022/07/13 12:15:50;;;;;;;4.60;0.80;;;56.00;9.10;;;;;;5011738;28;20095;-76
2022/07/13 12:18:17;;;;;;;5.47;0.75;;;55.50;9.10;;;;;;5011593;28;20029;-77
2022/07/13 12:20:43;;;;;;;3.97;0.80;;;55.70;9.30;;;;;;5008325;28;20041;-76
2022/07/13 12:23:09;;;;;;;4.03;0.80;;;55.70;8.80;;;;;;5026060;28;20021;-76
2022/07/13 12:25:41;;;;;;;1.67;0.60;;;55.80;8.60;;;;;;5026444;28;20094;-77
2022/07/13 12:28:09;;;;;;;3.00;0.70;;;55.90;8.40;;;;;;5016202;28;20122;-77
2022/07/13 12:30:40;;;;;;;3.35;0.60;;;55.80;8.00;;;;;;5026457;28;20098;-78
2022/07/13 12:33:09;;;;;;;4.22;0.65;;;55.20;8.30;;;;;;5011345;28;20373;-77
2022/07/13 12:35:37;;;;;;;3.30;0.70;;;55.00;8.50;;;;;;5007431;28;20057;-77
2022/07/13 12:38:16;;;;;;;3.08;0.70;;;54.90;9.10;;;;;;5023310;28;20017;-76
2022/07/13 12:40:49;;;;;;;2.65;0.75;;;54.80;9.10;;;;;;5025174;28;20068;-77
2022/07/13 12:43:26;;;;;;;2.70;0.70;;;54.90;8.70;;;;;;5019731;28;20030;-75
2022/07/13 12:45:52;;;;;;;4.25;0.65;;;55.00;7.50;;;;;;5016309;28;20449;-77
2022/07/13 12:48:22;;;;;;;4.28;0.60;;;54.90;7.70;;;;;;5020927;28;20068;-75
2022/07/13 12:51:14;;;;;;;6.97;0.80;;;54.90;7.70;;;;;;5011410;28;20479;-74
2022/07/13 12:53:53;;;;;;;3.97;0.60;;;54.90;8.00;;;;;;5012531;28;20044;-75
2022/07/13 12:56:24;;;;;;;4.80;0.70;;;54.80;8.10;;;;;;5010888;28;20025;-75
2022/07/13 12:58:55;;;;;;;2.97;0.60;;;52.70;11.90;;;;;;5034128;28;20096;-74
2022/07/13 13:01:37;;;;;;;3.38;0.60;;;54.00;8.70;;;;;;5016500;28;20030;-75